sensor_id;sensor_type;location;lat;lon;timestamp;pressure;altitude;pressure_sealevel;temperature
13304;BMP280;6720;51.958;4.540;2022-07-29T00:00:11;101641.06;;;17.61
13304;BMP280;6720;51.958;4.540;2022-07-29T00:02:37;101641.91;;;17.63
13304;BMP280;6720;51.958;4.540;2022-07-29T00:05:04;101624.44;;;17.57
13304;BMP280;6720;51.958;4.540;2022-07-29T00:07:29;101632.16;;;17.63
13304;BMP280;6720;51.958;4.540;2022-07-29T00:09:55;101630.53;;;17.59
13304;BMP280;6720;51.958;4.540;2022-07-29T00:12:22;101629.78;;;17.56
13304;BMP280;6720;51.958;4.540;2022-07-29T00:14:47;101623.66;;;17.54
13304;BMP280;6720;51.958;4.540;2022-07-29T00:17:13;101628.94;;;17.54
13304;BMP280;6720;51.958;4.540;2022-07-29T00:19:39;101634.34;;;17.51
13304;BMP280;6720;51.958;4.540;2022-07-29T00:22:04;101630.38;;;17.36
13304;BMP280;6720;51.958;4.540;2022-07-29T00:24:29;101632.09;;;17.37
13304;BMP280;6720;51.958;4.540;2022-07-29T00:26:55;101627.69;;;17.38
13304;BMP280;6720;51.958;4.540;2022-07-29T00:29:20;101622.53;;;17.33
13304;BMP280;6720;51.958;4.540;2022-07-29T00:31:45;101624.28;;;17.34
13304;BMP280;6720;51.958;4.540;2022-07-29T00:34:11;101613.47;;;17.40
13304;BMP280;6720;51.958;4.540;2022-07-29T00:36:55;101618.31;;;17.28
13304;BMP280;6720;51.958;4.540;2022-07-29T00:39:20;101619.13;;;17.30
13304;BMP280;6720;51.958;4.540;2022-07-29T00:41:46;101609.25;;;17.35
13304;BMP280;6720;51.958;4.540;2022-07-29T00:44:11;101614.53;;;17.35
13304;BMP280;6720;51.958;4.540;2022-07-29T00:46:36;101613.69;;;17.34
13304;BMP280;6720;51.958;4.540;2022-07-29T00:49:02;101608.44;;;17.33
13304;BMP280;6720;51.958;4.540;2022-07-29T00:51:27;101603.19;;;17.31
13304;BMP280;6720;51.958;4.540;2022-07-29T00:53:53;101611.28;;;17.27
13304;BMP280;6720;51.958;4.540;2022-07-29T00:56:19;101612.34;;;17.21
13304;BMP280;6720;51.958;4.540;2022-07-29T00:58:46;101613.94;;;17.27
13304;BMP280;6720;51.958;4.540;2022-07-29T01:01:12;101611.59;;;17.18
13304;BMP280;6720;51.958;4.540;2022-07-29T01:03:37;101613.41;;;17.16
13304;BMP280;6720;51.958;4.540;2022-07-29T01:06:03;101607.94;;;17.22
13304;BMP280;6720;51.958;4.540;2022-07-29T01:08:31;101597.53;;;17.16
13304;BMP280;6720;51.958;4.540;2022-07-29T01:10:57;101607.94;;;17.22
13304;BMP280;6720;51.958;4.540;2022-07-29T01:13:23;101603.66;;;17.18
13304;BMP280;6720;51.958;4.540;2022-07-29T01:15:54;101597.00;;;17.05
13304;BMP280;6720;51.958;4.540;2022-07-29T01:18:28;101598.72;;;17.06
13304;BMP280;6720;51.958;4.540;2022-07-29T01:26:16;101592.94;;;16.95
13304;BMP280;6720;51.958;4.540;2022-07-29T01:31:26;101598.31;;;16.92
13304;BMP280;6720;51.958;4.540;2022-07-29T01:33:58;101580.38;;;16.72
13304;BMP280;6720;51.958;4.540;2022-07-29T01:36:36;101597.50;;;16.88
13304;BMP280;6720;51.958;4.540;2022-07-29T01:39:09;101601.75;;;16.94
13304;BMP280;6720;51.958;4.540;2022-07-29T01:41:38;101595.75;;;16.89
13304;BMP280;6720;51.958;4.540;2022-07-29T01:44:13;101584.63;;;16.78
13304;BMP280;6720;51.958;4.540;2022-07-29T01:46:45;101587.91;;;16.86
13304;BMP280;6720;51.958;4.540;2022-07-29T01:49:15;101583.63;;;16.82
13304;BMP280;6720;51.958;4.540;2022-07-29T01:51:49;101587.28;;;16.78
13304;BMP280;6720;51.958;4.540;2022-07-29T01:54:32;101583.75;;;16.77
13304;BMP280;6720;51.958;4.540;2022-07-29T01:56:59;101561.66;;;16.80
13304;BMP280;6720;51.958;4.540;2022-07-29T01:59:25;101579.56;;;16.98
13304;BMP280;6720;51.958;4.540;2022-07-29T02:01:53;101576.56;;;16.82
13304;BMP280;6720;51.958;4.540;2022-07-29T02:04:19;101576.56;;;16.82
13304;BMP280;6720;51.958;4.540;2022-07-29T02:06:48;101568.13;;;16.70
13304;BMP280;6720;51.958;4.540;2022-07-29T02:09:14;101573.16;;;16.77
13304;BMP280;6720;51.958;4.540;2022-07-29T02:11:47;101572.25;;;16.80
13304;BMP280;6720;51.958;4.540;2022-07-29T02:14:14;101562.81;;;16.71
13304;BMP280;6720;51.958;4.540;2022-07-29T02:16:41;101549.72;;;16.67
13304;BMP280;6720;51.958;4.540;2022-07-29T02:19:07;101572.91;;;16.86
13304;BMP280;6720;51.958;4.540;2022-07-29T02:21:34;101560.19;;;16.70
13304;BMP280;6720;51.958;4.540;2022-07-29T02:24:01;101563.56;;;16.75
13304;BMP280;6720;51.958;4.540;2022-07-29T02:26:29;101559.09;;;16.77
13304;BMP280;6720;51.958;4.540;2022-07-29T02:28:57;101561.53;;;16.83
13304;BMP280;6720;51.958;4.540;2022-07-29T02:31:25;101558.28;;;16.75
13304;BMP280;6720;51.958;4.540;2022-07-29T02:33:52;101563.84;;;16.66
13304;BMP280;6720;51.958;4.540;2022-07-29T02:36:21;101567.03;;;16.77
13304;BMP280;6720;51.958;4.540;2022-07-29T02:38:46;101565.47;;;16.70
13304;BMP280;6720;51.958;4.540;2022-07-29T02:41:44;101571.16;;;16.58
13304;BMP280;6720;51.958;4.540;2022-07-29T02:44:16;101554.63;;;16.51
13304;BMP280;6720;51.958;4.540;2022-07-29T02:46:47;101564.31;;;16.51
13304;BMP280;6720;51.958;4.540;2022-07-29T02:51:49;101547.34;;;16.58
13304;BMP280;6720;51.958;4.540;2022-07-29T02:57:04;101552.00;;;16.50
13304;BMP280;6720;51.958;4.540;2022-07-29T02:59:34;101552.09;;;16.47
13304;BMP280;6720;51.958;4.540;2022-07-29T03:02:02;101554.66;;;16.50
13304;BMP280;6720;51.958;4.540;2022-07-29T03:04:28;101557.38;;;16.47
13304;BMP280;6720;51.958;4.540;2022-07-29T03:06:58;101539.88;;;16.43
13304;BMP280;6720;51.958;4.540;2022-07-29T03:09:25;101550.50;;;16.40
13304;BMP280;6720;51.958;4.540;2022-07-29T03:11:51;101513.47;;;16.11
13304;BMP280;6720;51.958;4.540;2022-07-29T03:14:19;101540.09;;;16.34
13304;BMP280;6720;51.958;4.540;2022-07-29T03:16:46;101546.34;;;16.31
13304;BMP280;6720;51.958;4.540;2022-07-29T03:19:12;101550.78;;;16.31
13304;BMP280;6720;51.958;4.540;2022-07-29T03:21:38;101552.66;;;16.26
13304;BMP280;6720;51.958;4.540;2022-07-29T03:24:04;101557.97;;;16.26
13304;BMP280;6720;51.958;4.540;2022-07-29T03:26:29;101561.69;;;16.19
13304;BMP280;6720;51.958;4.540;2022-07-29T03:28:54;101553.78;;;16.17
13304;BMP280;6720;51.958;4.540;2022-07-29T03:31:20;101552.16;;;16.13
13304;BMP280;6720;51.958;4.540;2022-07-29T03:33:45;101547.31;;;16.29
13304;BMP280;6720;51.958;4.540;2022-07-29T03:36:10;101543.94;;;16.24
13304;BMP280;6720;51.958;4.540;2022-07-29T03:38:36;101539.00;;;16.12
13304;BMP280;6720;51.958;4.540;2022-07-29T03:41:07;101554.72;;;16.16
13304;BMP280;6720;51.958;4.540;2022-07-29T03:43:36;101546.59;;;16.24
13304;BMP280;6720;51.958;4.540;2022-07-29T03:46:04;101545.75;;;16.22
13304;BMP280;6720;51.958;4.540;2022-07-29T03:48:32;101548.59;;;16.16
13304;BMP280;6720;51.958;4.540;2022-07-29T03:51:00;101526.09;;;16.01
13304;BMP280;6720;51.958;4.540;2022-07-29T03:53:26;101540.75;;;16.13
13304;BMP280;6720;51.958;4.540;2022-07-29T03:55:54;101544.09;;;16.18
13304;BMP280;6720;51.958;4.540;2022-07-29T03:58:26;101547.66;;;16.17
13304;BMP280;6720;51.958;4.540;2022-07-29T04:00:52;101551.13;;;16.19
13304;BMP280;6720;51.958;4.540;2022-07-29T04:03:20;101548.63;;;16.14
13304;BMP280;6720;51.958;4.540;2022-07-29T04:06:04;101557.31;;;16.18
13304;BMP280;6720;51.958;4.540;2022-07-29T04:08:31;101550.75;;;16.02
13304;BMP280;6720;51.958;4.540;2022-07-29T04:10:57;101554.25;;;16.02
13304;BMP280;6720;51.958;4.540;2022-07-29T04:13:22;101553.63;;;15.93
13304;BMP280;6720;51.958;4.540;2022-07-29T04:15:48;101556.03;;;16.02
13304;BMP280;6720;51.958;4.540;2022-07-29T04:18:13;101545.53;;;15.99
13304;BMP280;6720;51.958;4.540;2022-07-29T04:20:38;101558.75;;;15.99
13304;BMP280;6720;51.958;4.540;2022-07-29T04:23:04;101549.41;;;15.87
13304;BMP280;6720;51.958;4.540;2022-07-29T04:25:29;101555.53;;;15.88
13304;BMP280;6720;51.958;4.540;2022-07-29T04:27:54;101557.09;;;15.95
13304;BMP280;6720;51.958;4.540;2022-07-29T04:30:26;101551.81;;;15.95
13304;BMP280;6720;51.958;4.540;2022-07-29T04:32:51;101551.97;;;15.89
13304;BMP280;6720;51.958;4.540;2022-07-29T04:35:18;101549.22;;;15.93
13304;BMP280;6720;51.958;4.540;2022-07-29T04:37:43;101549.28;;;15.90
13304;BMP280;6720;51.958;4.540;2022-07-29T04:40:09;101555.53;;;15.88
13304;BMP280;6720;51.958;4.540;2022-07-29T04:42:34;101549.22;;;15.93
13304;BMP280;6720;51.958;4.540;2022-07-29T04:45:00;101545.47;;;16.02
13304;BMP280;6720;51.958;4.540;2022-07-29T04:47:25;101544.56;;;16.01
13304;BMP280;6720;51.958;4.540;2022-07-29T04:49:50;101545.50;;;16.00
13304;BMP280;6720;51.958;4.540;2022-07-29T04:52:16;101541.94;;;16.01
13304;BMP280;6720;51.958;4.540;2022-07-29T04:54:41;101528.81;;;15.98
13304;BMP280;6720;51.958;4.540;2022-07-29T04:57:07;101546.09;;;16.10
13304;BMP280;6720;51.958;4.540;2022-07-29T04:59:32;101551.63;;;16.02
13304;BMP280;6720;51.958;4.540;2022-07-29T05:01:57;101548.09;;;16.02
13304;BMP280;6720;51.958;4.540;2022-07-29T05:04:23;101547.53;;;15.91
13304;BMP280;6720;51.958;4.540;2022-07-29T05:06:48;101549.69;;;15.75
13304;BMP280;6720;51.958;4.540;2022-07-29T05:09:13;101561.06;;;15.79
13304;BMP280;6720;51.958;4.540;2022-07-29T05:11:39;101562.38;;;15.95
13304;BMP280;6720;51.958;4.540;2022-07-29T05:14:04;101554.75;;;15.84
13304;BMP280;6720;51.958;4.540;2022-07-29T05:16:30;101543.56;;;15.75
13304;BMP280;6720;51.958;4.540;2022-07-29T05:18:55;101550.75;;;15.68
13304;BMP280;6720;51.958;4.540;2022-07-29T05:21:20;101559.09;;;15.87
13304;BMP280;6720;51.958;4.540;2022-07-29T05:23:46;101564.31;;;15.88
13304;BMP280;6720;51.958;4.540;2022-07-29T05:26:11;101561.22;;;16.05
13304;BMP280;6720;51.958;4.540;2022-07-29T05:28:37;101565.31;;;16.15
13304;BMP280;6720;51.958;4.540;2022-07-29T05:31:02;101575.69;;;16.22
13304;BMP280;6720;51.958;4.540;2022-07-29T05:33:28;101571.94;;;16.31
13304;BMP280;6720;51.958;4.540;2022-07-29T05:35:53;101576.06;;;16.39
13304;BMP280;6720;51.958;4.540;2022-07-29T05:38:19;101558.56;;;16.35
13304;BMP280;6720;51.958;4.540;2022-07-29T05:40:44;101556.13;;;16.58
13304;BMP280;6720;51.958;4.540;2022-07-29T05:43:09;101551.09;;;16.51
13304;BMP280;6720;51.958;4.540;2022-07-29T05:45:35;101572.69;;;16.65
13304;BMP280;6720;51.958;4.540;2022-07-29T05:48:00;101572.31;;;16.77
13304;BMP280;6720;51.958;4.540;2022-07-29T05:50:25;101567.88;;;16.77
13304;BMP280;6720;51.958;4.540;2022-07-29T05:52:51;101568.47;;;16.87
13304;BMP280;6720;51.958;4.540;2022-07-29T05:55:17;101566.03;;;16.81
13304;BMP280;6720;51.958;4.540;2022-07-29T05:57:42;101570.22;;;16.88
13304;BMP280;6720;51.958;4.540;2022-07-29T06:00:10;101581.19;;;16.76
13304;BMP280;6720;51.958;4.540;2022-07-29T06:02:38;101575.41;;;16.91
13304;BMP280;6720;51.958;4.540;2022-07-29T06:05:03;101573.97;;;16.81
13304;BMP280;6720;51.958;4.540;2022-07-29T06:07:29;101570.22;;;16.88
13304;BMP280;6720;51.958;4.540;2022-07-29T06:09:55;101579.78;;;16.92
13304;BMP280;6720;51.958;4.540;2022-07-29T06:12:21;101567.38;;;16.94
13304;BMP280;6720;51.958;4.540;2022-07-29T06:14:46;101559.63;;;16.88
13304;BMP280;6720;51.958;4.540;2022-07-29T06:17:11;101565.47;;;16.99
13304;BMP280;6720;51.958;4.540;2022-07-29T06:19:37;101574.81;;;17.09
13304;BMP280;6720;51.958;4.540;2022-07-29T06:22:03;101574.81;;;17.09
13304;BMP280;6720;51.958;4.540;2022-07-29T06:24:28;101585.25;;;17.13
13304;BMP280;6720;51.958;4.540;2022-07-29T06:26:54;101585.31;;;17.12
13304;BMP280;6720;51.958;4.540;2022-07-29T06:29:19;101581.75;;;17.13
13304;BMP280;6720;51.958;4.540;2022-07-29T06:31:44;101573.84;;;17.11
13304;BMP280;6720;51.958;4.540;2022-07-29T06:34:10;101576.44;;;17.13
13304;BMP280;6720;51.958;4.540;2022-07-29T06:36:36;101586.09;;;17.15
13304;BMP280;6720;51.958;4.540;2022-07-29T06:39:07;101594.06;;;17.14
13304;BMP280;6720;51.958;4.540;2022-07-29T06:41:33;101570.75;;;16.99
13304;BMP280;6720;51.958;4.540;2022-07-29T06:43:58;101570.84;;;16.96
13304;BMP280;6720;51.958;4.540;2022-07-29T06:46:24;101594.16;;;17.11
13304;BMP280;6720;51.958;4.540;2022-07-29T06:48:50;101576.03;;;16.99
13304;BMP280;6720;51.958;4.540;2022-07-29T06:51:16;101595.44;;;17.25
13304;BMP280;6720;51.958;4.540;2022-07-29T06:53:42;101586.34;;;17.34
13304;BMP280;6720;51.958;4.540;2022-07-29T06:56:07;101580.69;;;17.46
13304;BMP280;6720;51.958;4.540;2022-07-29T06:58:38;101590.97;;;17.55
13304;BMP280;6720;51.958;4.540;2022-07-29T07:01:05;101575.84;;;17.58
13304;BMP280;6720;51.958;4.540;2022-07-29T07:03:30;101598.13;;;17.77
13304;BMP280;6720;51.958;4.540;2022-07-29T07:05:56;101581.69;;;17.68
13304;BMP280;6720;51.958;4.540;2022-07-29T07:08:22;101597.16;;;17.80
13304;BMP280;6720;51.958;4.540;2022-07-29T07:10:49;101607.56;;;17.86
13304;BMP280;6720;51.958;4.540;2022-07-29T07:13:15;101586.31;;;17.87
13304;BMP280;6720;51.958;4.540;2022-07-29T07:15:43;101604.31;;;18.02
13304;BMP280;6720;51.958;4.540;2022-07-29T07:18:08;101603.66;;;17.96
13304;BMP280;6720;51.958;4.540;2022-07-29T07:20:34;101602.03;;;17.92
13304;BMP280;6720;51.958;4.540;2022-07-29T07:23:00;101596.72;;;17.92
13304;BMP280;6720;51.958;4.540;2022-07-29T07:25:26;101603.78;;;17.93
13304;BMP280;6720;51.958;4.540;2022-07-29T07:27:54;101610.22;;;17.86
13304;BMP280;6720;51.958;4.540;2022-07-29T07:30:19;101606.38;;;17.94
13304;BMP280;6720;51.958;4.540;2022-07-29T07:32:44;101609.94;;;17.93
13304;BMP280;6720;51.958;4.540;2022-07-29T07:35:10;101609.69;;;18.01
13304;BMP280;6720;51.958;4.540;2022-07-29T07:37:36;101611.97;;;18.10
13304;BMP280;6720;51.958;4.540;2022-07-29T07:40:03;101615.75;;;18.03
13304;BMP280;6720;51.958;4.540;2022-07-29T07:42:29;101620.41;;;18.21
13304;BMP280;6720;51.958;4.540;2022-07-29T07:44:54;101610.16;;;18.12
13304;BMP280;6720;51.958;4.540;2022-07-29T07:47:20;101616.53;;;18.31
13304;BMP280;6720;51.958;4.540;2022-07-29T07:49:46;101621.41;;;18.43
13304;BMP280;6720;51.958;4.540;2022-07-29T07:52:13;101609.56;;;18.53
13304;BMP280;6720;51.958;4.540;2022-07-29T07:54:38;101612.63;;;18.64
13304;BMP280;6720;51.958;4.540;2022-07-29T07:57:03;101600.41;;;18.60
13304;BMP280;6720;51.958;4.540;2022-07-29T07:59:29;101598.22;;;18.71
13304;BMP280;6720;51.958;4.540;2022-07-29T08:01:54;101602.38;;;18.78
13304;BMP280;6720;51.958;4.540;2022-07-29T08:04:20;101596.09;;;18.81
13304;BMP280;6720;51.958;4.540;2022-07-29T08:06:45;101594.13;;;18.86
13304;BMP280;6720;51.958;4.540;2022-07-29T08:09:10;101594.50;;;18.98
13304;BMP280;6720;51.958;4.540;2022-07-29T08:11:36;101596.13;;;19.02
13304;BMP280;6720;51.958;4.540;2022-07-29T08:14:01;101599.09;;;19.16
13304;BMP280;6720;51.958;4.540;2022-07-29T08:16:27;101597.97;;;19.22
13304;BMP280;6720;51.958;4.540;2022-07-29T08:18:53;101594.53;;;19.20
13304;BMP280;6720;51.958;4.540;2022-07-29T08:21:22;101592.13;;;19.35
13304;BMP280;6720;51.958;4.540;2022-07-29T08:23:48;101599.97;;;19.38
13304;BMP280;6720;51.958;4.540;2022-07-29T08:26:19;101599.09;;;19.38
13304;BMP280;6720;51.958;4.540;2022-07-29T08:28:46;101614.09;;;19.60
13304;BMP280;6720;51.958;4.540;2022-07-29T08:31:14;101600.81;;;19.60
13304;BMP280;6720;51.958;4.540;2022-07-29T08:33:39;101604.41;;;19.59
13304;BMP280;6720;51.958;4.540;2022-07-29T08:36:05;101616.53;;;19.66
13304;BMP280;6720;51.958;4.540;2022-07-29T08:38:32;101602.66;;;19.80
13304;BMP280;6720;51.958;4.540;2022-07-29T08:40:58;101612.47;;;19.78
13304;BMP280;6720;51.958;4.540;2022-07-29T08:43:23;101598.59;;;19.71
13304;BMP280;6720;51.958;4.540;2022-07-29T08:45:51;101615.19;;;19.76
13304;BMP280;6720;51.958;4.540;2022-07-29T08:48:19;101615.59;;;19.87
13304;BMP280;6720;51.958;4.540;2022-07-29T08:50:46;101613.72;;;20.11
13304;BMP280;6720;51.958;4.540;2022-07-29T08:53:14;101617.47;;;20.25
13304;BMP280;6720;51.958;4.540;2022-07-29T08:55:43;101625.28;;;20.48
13304;BMP280;6720;51.958;4.540;2022-07-29T08:58:09;101614.81;;;20.45
13304;BMP280;6720;51.958;4.540;2022-07-29T09:00:37;101623.50;;;20.49
13304;BMP280;6720;51.958;4.540;2022-07-29T09:03:05;101621.66;;;20.31
13304;BMP280;6720;51.958;4.540;2022-07-29T09:05:32;101624.34;;;20.11
13304;BMP280;6720;51.958;4.540;2022-07-29T09:07:58;101622.53;;;20.31
13304;BMP280;6720;51.958;4.540;2022-07-29T09:10:24;101616.78;;;20.40
13304;BMP280;6720;51.958;4.540;2022-07-29T09:12:50;101605.06;;;20.64
13304;BMP280;6720;51.958;4.540;2022-07-29T09:15:17;101600.56;;;20.65
13304;BMP280;6720;51.958;4.540;2022-07-29T09:17:45;101607.19;;;20.56
13304;BMP280;6720;51.958;4.540;2022-07-29T09:20:13;101602.75;;;20.75
13304;BMP280;6720;51.958;4.540;2022-07-29T09:22:39;101599.78;;;20.81
13304;BMP280;6720;51.958;4.540;2022-07-29T09:25:05;101611.97;;;20.87
13304;BMP280;6720;51.958;4.540;2022-07-29T09:27:30;101601.97;;;21.10
13304;BMP280;6720;51.958;4.540;2022-07-29T09:30:00;101606.69;;;21.58
13304;BMP280;6720;51.958;4.540;2022-07-29T09:32:26;101591.84;;;21.71
13304;BMP280;6720;51.958;4.540;2022-07-29T09:35:19;101603.50;;;22.03
13304;BMP280;6720;51.958;4.540;2022-07-29T09:37:45;101611.66;;;22.17
13304;BMP280;6720;51.958;4.540;2022-07-29T09:40:19;101612.03;;;22.26
13304;BMP280;6720;51.958;4.540;2022-07-29T09:42:45;101615.09;;;22.36
13304;BMP280;6720;51.958;4.540;2022-07-29T09:45:12;101605.00;;;23.37
13304;BMP280;6720;51.958;4.540;2022-07-29T09:47:46;101609.28;;;23.55
13304;BMP280;6720;51.958;4.540;2022-07-29T09:50:14;101612.50;;;23.75
13304;BMP280;6720;51.958;4.540;2022-07-29T09:52:48;101610.06;;;24.30
13304;BMP280;6720;51.958;4.540;2022-07-29T09:55:13;101608.50;;;24.26
13304;BMP280;6720;51.958;4.540;2022-07-29T09:57:39;101613.53;;;24.60
13304;BMP280;6720;51.958;4.540;2022-07-29T10:00:07;101618.56;;;25.07
13304;BMP280;6720;51.958;4.540;2022-07-29T10:02:36;101618.09;;;25.67
13304;BMP280;6720;51.958;4.540;2022-07-29T10:05:05;101617.13;;;25.68
13304;BMP280;6720;51.958;4.540;2022-07-29T10:08:03;101615.84;;;26.00
13304;BMP280;6720;51.958;4.540;2022-07-29T10:10:29;101620.03;;;26.04
13304;BMP280;6720;51.958;4.540;2022-07-29T10:15:26;101609.66;;;26.62
13304;BMP280;6720;51.958;4.540;2022-07-29T10:17:53;101612.44;;;25.84
13304;BMP280;6720;51.958;4.540;2022-07-29T10:20:20;101605.03;;;25.22
13304;BMP280;6720;51.958;4.540;2022-07-29T10:22:46;101609.31;;;25.78
13304;BMP280;6720;51.958;4.540;2022-07-29T10:25:14;101617.66;;;25.61
13304;BMP280;6720;51.958;4.540;2022-07-29T10:27:39;101598.41;;;25.54
13304;BMP280;6720;51.958;4.540;2022-07-29T10:30:05;101616.75;;;27.12
13304;BMP280;6720;51.958;4.540;2022-07-29T10:41:02;101624.00;;;28.17
13304;BMP280;6720;51.958;4.540;2022-07-29T10:43:48;101612.06;;;27.62
13304;BMP280;6720;51.958;4.540;2022-07-29T10:46:14;101614.22;;;26.98
13304;BMP280;6720;51.958;4.540;2022-07-29T10:49:08;101612.66;;;27.42
13304;BMP280;6720;51.958;4.540;2022-07-29T10:51:58;101620.66;;;29.03
13304;BMP280;6720;51.958;4.540;2022-07-29T10:57:24;101607.69;;;29.39
13304;BMP280;6720;51.958;4.540;2022-07-29T11:05:06;101609.63;;;28.73
13304;BMP280;6720;51.958;4.540;2022-07-29T11:07:34;101610.88;;;28.12
13304;BMP280;6720;51.958;4.540;2022-07-29T11:15:22;101595.53;;;29.45
13304;BMP280;6720;51.958;4.540;2022-07-29T11:20:38;101608.66;;;27.95
13304;BMP280;6720;51.958;4.540;2022-07-29T11:23:30;101603.38;;;28.94
13304;BMP280;6720;51.958;4.540;2022-07-29T11:26:17;101603.22;;;29.18
13304;BMP280;6720;51.958;4.540;2022-07-29T11:34:23;101606.16;;;31.11
13304;BMP280;6720;51.958;4.540;2022-07-29T11:39:29;101604.72;;;28.56
13304;BMP280;6720;51.958;4.540;2022-07-29T11:44:58;101609.69;;;30.21
13304;BMP280;6720;51.958;4.540;2022-07-29T11:47:28;101590.63;;;29.81
13304;BMP280;6720;51.958;4.540;2022-07-29T11:49:56;101603.44;;;29.37
13304;BMP280;6720;51.958;4.540;2022-07-29T11:52:23;101597.38;;;30.88
13304;BMP280;6720;51.958;4.540;2022-07-29T11:54:49;101603.91;;;31.25
13304;BMP280;6720;51.958;4.540;2022-07-29T11:57:16;101581.25;;;30.77
13304;BMP280;6720;51.958;4.540;2022-07-29T11:59:43;101603.41;;;31.01
13304;BMP280;6720;51.958;4.540;2022-07-29T12:02:10;101611.72;;;31.19
13304;BMP280;6720;51.958;4.540;2022-07-29T12:04:52;101615.75;;;31.24
13304;BMP280;6720;51.958;4.540;2022-07-29T12:07:19;101604.22;;;30.32
13304;BMP280;6720;51.958;4.540;2022-07-29T12:09:51;101621.13;;;31.15
13304;BMP280;6720;51.958;4.540;2022-07-29T12:12:17;101618.66;;;31.99
13304;BMP280;6720;51.958;4.540;2022-07-29T12:14:43;101624.34;;;31.58
13304;BMP280;6720;51.958;4.540;2022-07-29T12:17:28;101621.34;;;31.70
13304;BMP280;6720;51.958;4.540;2022-07-29T12:19:55;101622.34;;;32.07
13304;BMP280;6720;51.958;4.540;2022-07-29T12:22:32;101619.19;;;32.02
13304;BMP280;6720;51.958;4.540;2022-07-29T12:25:03;101620.56;;;32.44
13304;BMP280;6720;51.958;4.540;2022-07-29T12:27:28;101623.19;;;33.09
13304;BMP280;6720;51.958;4.540;2022-07-29T12:30:00;101631.81;;;33.22
13304;BMP280;6720;51.958;4.540;2022-07-29T12:32:45;101620.72;;;32.52
13304;BMP280;6720;51.958;4.540;2022-07-29T12:35:18;101620.47;;;32.82
13304;BMP280;6720;51.958;4.540;2022-07-29T12:37:47;101622.63;;;32.04
13304;BMP280;6720;51.958;4.540;2022-07-29T12:40:16;101601.41;;;31.03
13304;BMP280;6720;51.958;4.540;2022-07-29T12:45:36;101623.81;;;31.92
13304;BMP280;6720;51.958;4.540;2022-07-29T12:48:02;101626.47;;;32.76
13304;BMP280;6720;51.958;4.540;2022-07-29T12:50:28;101628.00;;;32.88
13304;BMP280;6720;51.958;4.540;2022-07-29T12:52:53;101612.34;;;31.60
13304;BMP280;6720;51.958;4.540;2022-07-29T12:55:38;101616.59;;;32.48
13304;BMP280;6720;51.958;4.540;2022-07-29T12:58:04;101622.31;;;32.45
13304;BMP280;6720;51.958;4.540;2022-07-29T13:00:29;101612.09;;;31.82
13304;BMP280;6720;51.958;4.540;2022-07-29T13:02:59;101593.53;;;30.60
13304;BMP280;6720;51.958;4.540;2022-07-29T13:05:39;101604.44;;;30.70
13304;BMP280;6720;51.958;4.540;2022-07-29T13:08:16;101605.50;;;31.37
13304;BMP280;6720;51.958;4.540;2022-07-29T13:10:43;101599.28;;;31.84
13304;BMP280;6720;51.958;4.540;2022-07-29T13:13:12;101618.53;;;33.19
13304;BMP280;6720;51.958;4.540;2022-07-29T13:15:39;101625.06;;;32.72
13304;BMP280;6720;51.958;4.540;2022-07-29T13:18:25;101614.22;;;33.88
13304;BMP280;6720;51.958;4.540;2022-07-29T13:20:50;101617.06;;;33.25
13304;BMP280;6720;51.958;4.540;2022-07-29T13:23:16;101616.53;;;34.27
13304;BMP280;6720;51.958;4.540;2022-07-29T13:25:41;101625.59;;;33.74
13304;BMP280;6720;51.958;4.540;2022-07-29T13:28:06;101614.88;;;33.55
13304;BMP280;6720;51.958;4.540;2022-07-29T13:30:32;101618.41;;;33.83
13304;BMP280;6720;51.958;4.540;2022-07-29T13:32:57;101611.63;;;34.05
13304;BMP280;6720;51.958;4.540;2022-07-29T13:35:23;101614.91;;;34.34
13304;BMP280;6720;51.958;4.540;2022-07-29T13:37:48;101618.34;;;34.18
13304;BMP280;6720;51.958;4.540;2022-07-29T13:40:14;101619.38;;;32.66
13304;BMP280;6720;51.958;4.540;2022-07-29T13:42:39;101603.50;;;32.15
13304;BMP280;6720;51.958;4.540;2022-07-29T13:45:06;101601.59;;;30.21
13304;BMP280;6720;51.958;4.540;2022-07-29T13:47:32;101598.53;;;30.35
13304;BMP280;6720;51.958;4.540;2022-07-29T13:50:01;101607.75;;;29.71
13304;BMP280;6720;51.958;4.540;2022-07-29T13:52:26;101608.03;;;29.46
13304;BMP280;6720;51.958;4.540;2022-07-29T13:54:52;101602.81;;;31.94
13304;BMP280;6720;51.958;4.540;2022-07-29T13:57:17;101605.06;;;30.83
13304;BMP280;6720;51.958;4.540;2022-07-29T13:59:43;101607.91;;;32.35
13304;BMP280;6720;51.958;4.540;2022-07-29T14:02:10;101608.56;;;32.93
13304;BMP280;6720;51.958;4.540;2022-07-29T14:04:38;101606.59;;;32.30
13304;BMP280;6720;51.958;4.540;2022-07-29T14:07:04;101609.53;;;33.01
13304;BMP280;6720;51.958;4.540;2022-07-29T14:09:31;101615.91;;;32.73
13304;BMP280;6720;51.958;4.540;2022-07-29T14:11:56;101626.19;;;32.24
13304;BMP280;6720;51.958;4.540;2022-07-29T14:14:22;101617.63;;;32.65
13304;BMP280;6720;51.958;4.540;2022-07-29T14:16:47;101603.88;;;33.39
13304;BMP280;6720;51.958;4.540;2022-07-29T14:19:12;101612.16;;;32.74
13304;BMP280;6720;51.958;4.540;2022-07-29T14:21:38;101603.75;;;29.43
13304;BMP280;6720;51.958;4.540;2022-07-29T14:24:04;101623.47;;;30.98
13304;BMP280;6720;51.958;4.540;2022-07-29T14:26:30;101624.31;;;31.48
13304;BMP280;6720;51.958;4.540;2022-07-29T14:28:56;101624.34;;;29.87
13304;BMP280;6720;51.958;4.540;2022-07-29T14:31:21;101627.16;;;29.54
13304;BMP280;6720;51.958;4.540;2022-07-29T14:33:47;101610.59;;;30.51
13304;BMP280;6720;51.958;4.540;2022-07-29T14:36:12;101627.88;;;32.34
13304;BMP280;6720;51.958;4.540;2022-07-29T14:38:37;101622.13;;;30.83
13304;BMP280;6720;51.958;4.540;2022-07-29T14:41:03;101616.19;;;29.98
13304;BMP280;6720;51.958;4.540;2022-07-29T14:43:29;101613.84;;;30.25
13304;BMP280;6720;51.958;4.540;2022-07-29T14:45:54;101622.72;;;30.87
13304;BMP280;6720;51.958;4.540;2022-07-29T14:48:22;101625.41;;;30.57
13304;BMP280;6720;51.958;4.540;2022-07-29T14:50:48;101631.72;;;30.97
13304;BMP280;6720;51.958;4.540;2022-07-29T14:53:13;101617.06;;;30.90
13304;BMP280;6720;51.958;4.540;2022-07-29T14:55:39;101609.94;;;31.57
13304;BMP280;6720;51.958;4.540;2022-07-29T14:58:05;101626.47;;;31.64
13304;BMP280;6720;51.958;4.540;2022-07-29T15:00:31;101627.75;;;32.26
13304;BMP280;6720;51.958;4.540;2022-07-29T15:02:59;101626.44;;;30.86
13304;BMP280;6720;51.958;4.540;2022-07-29T15:05:25;101632.28;;;31.31